createdAt,value
2022-08-26T00:02:58.159Z,97940.53
2022-08-26T00:08:02.678Z,97939.78
2022-08-26T00:13:09.356Z,97937.22
2022-08-26T00:18:21.929Z,97930.56
2022-08-26T00:23:28.950Z,97923.06
2022-08-26T00:28:34.467Z,97926.09
2022-08-26T00:33:40.914Z,97932.84
2022-08-26T00:38:45.748Z,97950.09
2022-08-26T00:43:51.838Z,97949.69
2022-08-26T00:49:11.886Z,97947.84
2022-08-26T00:54:20.100Z,97950.00
2022-08-26T00:59:26.513Z,97941.09
2022-08-26T01:04:36.758Z,97949.56
2022-08-26T01:09:41.009Z,97947.53
2022-08-26T01:14:47.174Z,97942.56
2022-08-26T01:20:04.889Z,97941.34
2022-08-26T01:25:11.562Z,97947.53
2022-08-26T01:30:16.117Z,97951.59
2022-08-26T01:35:21.376Z,97944.66
2022-08-26T01:40:33.475Z,97957.84
2022-08-26T01:45:42.098Z,97956.34
2022-08-26T01:50:47.890Z,97950.66
2022-08-26T01:56:00.001Z,97957.56
2022-08-26T02:01:04.834Z,97960.88
2022-08-26T02:06:10.355Z,97958.75
2022-08-26T02:11:18.399Z,97960.06
2022-08-26T02:16:27.954Z,97960.34
2022-08-26T02:21:33.500Z,97963.66
2022-08-26T02:26:39.636Z,97971.09
2022-08-26T02:31:43.913Z,97973.41
2022-08-26T02:36:49.355Z,97979.41
2022-08-26T02:41:57.575Z,97968.00
2022-08-26T02:47:02.076Z,97971.44
2022-08-26T02:52:06.558Z,97969.72
2022-08-26T02:57:12.547Z,97968.44
2022-08-26T03:02:17.327Z,97966.03
2022-08-26T03:07:21.573Z,97958.94
2022-08-26T03:12:27.464Z,97964.63
2022-08-26T03:17:31.612Z,97962.06
2022-08-26T03:22:36.066Z,97968.63
2022-08-26T03:27:41.696Z,97965.22
2022-08-26T03:32:47.420Z,97969.34
2022-08-26T03:37:52.159Z,97967.81
2022-08-26T03:42:58.507Z,97964.94
2022-08-26T03:48:05.104Z,97971.50
2022-08-26T03:53:12.700Z,97969.53
2022-08-26T03:58:19.022Z,97968.38
2022-08-26T04:03:37.263Z,97964.38
2022-08-26T04:08:41.789Z,97961.81
2022-08-26T04:13:49.611Z,97957.41
2022-08-26T04:18:54.078Z,97966.41
2022-08-26T04:23:59.201Z,97950.16
2022-08-26T04:29:13.868Z,97958.13
2022-08-26T04:34:19.312Z,97958.28
2022-08-26T04:39:23.687Z,97958.97
2022-08-26T04:44:31.831Z,97971.50
2022-08-26T04:49:37.157Z,97981.34
2022-08-26T04:54:42.140Z,97987.44
2022-08-26T04:59:47.863Z,97992.72
2022-08-26T05:04:53.762Z,98008.25
2022-08-26T05:09:58.237Z,98002.00
2022-08-26T05:15:04.336Z,97991.28
2022-08-26T05:20:10.883Z,98003.66
2022-08-26T05:25:16.037Z,97998.53
2022-08-26T05:30:25.514Z,98004.06
2022-08-26T05:35:33.983Z,98007.28
2022-08-26T05:40:42.224Z,98009.13
2022-08-26T05:45:51.389Z,98014.22
2022-08-26T05:50:55.767Z,98009.00
2022-08-26T05:56:00.687Z,98010.88
2022-08-26T06:01:10.308Z,98009.91
2022-08-26T06:06:20.221Z,98015.00
2022-08-26T06:11:33.456Z,98019.09
2022-08-26T06:16:43.851Z,98013.75
2022-08-26T06:21:54.904Z,98021.38
2022-08-26T06:27:02.235Z,98025.00
2022-08-26T06:32:08.772Z,98020.50
2022-08-26T06:37:13.239Z,98029.16
2022-08-26T06:42:17.797Z,98034.81
2022-08-26T06:47:23.956Z,98030.75
2022-08-26T06:52:29.154Z,98031.63
2022-08-26T06:57:34.791Z,98033.47
2022-08-26T07:02:46.921Z,98030.66
2022-08-26T07:07:52.425Z,98028.81
2022-08-26T07:12:56.864Z,98034.25
2022-08-26T07:18:02.948Z,98038.41
2022-08-26T07:23:11.869Z,98047.56
2022-08-26T07:28:17.266Z,98041.78
2022-08-26T07:33:23.190Z,98050.97
2022-08-26T07:38:27.895Z,98043.09
2022-08-26T07:43:36.876Z,98038.78
2022-08-26T07:48:46.199Z,98041.91
2022-08-26T07:53:52.540Z,98053.97
2022-08-26T07:58:57.504Z,98044.00
2022-08-26T08:04:04.596Z,98048.75
2022-08-26T08:09:09.359Z,98048.41
2022-08-26T08:14:14.334Z,98051.81
2022-08-26T08:19:19.877Z,98057.06
2022-08-26T08:24:26.051Z,98050.09
2022-08-26T08:29:31.256Z,98048.56
2022-08-26T08:34:37.674Z,98044.63
2022-08-26T08:39:42.346Z,98047.19
2022-08-26T08:44:53.448Z,98044.78
2022-08-26T08:50:07.672Z,98056.09
2022-08-26T08:55:18.198Z,98051.91
2022-08-26T09:00:30.560Z,98044.22
2022-08-26T09:05:43.386Z,98052.28
2022-08-26T09:10:56.150Z,98049.34
2022-08-26T09:16:10.369Z,98049.63
2022-08-26T09:21:19.236Z,98046.00
2022-08-26T09:26:30.635Z,98049.28
2022-08-26T09:31:39.122Z,98054.09
2022-08-26T09:36:48.547Z,98049.31
2022-08-26T09:42:09.789Z,98050.94
2022-08-26T09:47:14.285Z,98046.69
2022-08-26T09:52:26.582Z,98051.31
2022-08-26T09:57:35.016Z,98046.25
2022-08-26T10:02:47.891Z,98035.38
2022-08-26T10:07:55.679Z,98040.00
2022-08-26T10:13:10.362Z,98023.47
2022-08-26T10:18:21.361Z,98023.44
2022-08-26T10:23:37.179Z,98018.44
2022-08-26T10:28:52.026Z,98008.47
2022-08-26T10:34:00.409Z,98009.63
2022-08-26T10:39:23.920Z,98013.91
2022-08-26T10:44:32.401Z,97999.56
2022-08-26T10:49:38.735Z,98001.09
2022-08-26T10:54:59.328Z,97994.66
2022-08-26T11:00:28.828Z,97983.06
2022-08-26T11:05:33.401Z,97973.06
2022-08-26T11:10:59.258Z,97972.06
2022-08-26T11:16:04.028Z,97965.75
2022-08-26T11:22:06.210Z,97954.44
2022-08-26T11:27:57.521Z,97952.94
2022-08-26T11:33:03.264Z,97945.34
2022-08-26T11:38:21.234Z,97958.44
2022-08-26T11:43:30.267Z,97946.50
2022-08-26T11:48:41.495Z,97947.63
2022-08-26T11:53:47.209Z,97952.31
2022-08-26T11:58:59.597Z,97950.06
2022-08-26T12:04:09.110Z,97949.03
2022-08-26T12:09:24.081Z,97945.47
2022-08-26T12:14:28.607Z,97934.41
2022-08-26T12:19:35.490Z,97932.69
2022-08-26T12:24:45.844Z,97939.78
2022-08-26T12:30:06.839Z,97934.19
2022-08-26T12:35:18.524Z,97929.28
2022-08-26T12:40:41.328Z,97929.06
2022-08-26T12:45:59.917Z,97932.00
2022-08-26T12:51:23.106Z,97938.81
2022-08-26T12:56:33.757Z,97941.78
2022-08-26T13:01:43.833Z,97932.59
2022-08-26T13:07:22.840Z,97929.25
2022-08-26T13:12:32.697Z,97921.09
2022-08-26T13:17:39.683Z,97917.41
2022-08-26T13:22:45.816Z,97927.78
2022-08-26T13:27:58.311Z,97936.59
2022-08-26T13:33:02.890Z,97945.50
2022-08-26T13:38:14.765Z,97928.97
2022-08-26T13:43:37.771Z,97925.09
2022-08-26T13:48:42.040Z,97933.75
2022-08-26T13:53:54.028Z,97916.88
2022-08-26T13:58:59.422Z,97898.06
2022-08-26T14:04:04.422Z,97904.31
2022-08-26T14:09:11.622Z,97885.66
2022-08-26T14:14:15.911Z,97902.03
2022-08-26T14:19:20.372Z,97896.19
2022-08-26T14:24:30.921Z,97903.19
2022-08-26T14:29:35.789Z,97897.56
2022-08-26T14:34:43.120Z,97899.66
2022-08-26T14:39:49.920Z,97883.84
2022-08-26T14:44:59.564Z,97875.22
2022-08-26T14:50:04.397Z,97883.84
2022-08-26T14:55:11.519Z,97884.09
2022-08-26T15:00:16.831Z,97877.47
2022-08-26T15:05:21.286Z,97880.78
2022-08-26T15:10:27.544Z,97894.72
2022-08-26T15:15:32.166Z,97880.22
2022-08-26T15:20:46.147Z,97872.72
2022-08-26T15:26:01.582Z,97874.94
2022-08-26T15:31:08.159Z,97887.94
2022-08-26T15:36:13.720Z,97864.25
2022-08-26T15:41:30.588Z,97884.50
2022-08-26T15:53:49.761Z,97886.09
2022-08-26T16:00:16.834Z,97906.63
2022-08-26T16:06:16.480Z,97916.31
2022-08-26T16:12:13.036Z,97912.81
2022-08-26T16:18:04.317Z,97898.88
2022-08-26T16:24:33.220Z,97909.13
2022-08-26T16:30:28.616Z,97909.72
2022-08-26T16:36:34.048Z,97898.50
2022-08-26T16:42:20.114Z,97909.91
2022-08-26T16:48:00.831Z,97916.03
2022-08-26T17:15:18.017Z,97946.97
2022-08-26T17:20:25.711Z,97973.72
2022-08-26T17:25:33.230Z,97986.97
2022-08-26T17:30:40.325Z,98011.88
2022-08-26T17:35:44.684Z,98019.09
2022-08-26T17:40:52.832Z,98013.31
2022-08-26T17:46:04.531Z,98010.44
2022-08-26T17:51:15.214Z,98007.38
2022-08-26T17:56:25.368Z,98002.44
2022-08-26T18:01:31.236Z,97996.03
2022-08-26T18:06:35.843Z,97996.03
2022-08-26T18:11:41.233Z,97999.66
2022-08-26T18:16:47.020Z,97996.84
2022-08-26T18:21:51.496Z,97999.47
2022-08-26T18:26:55.762Z,97993.38
2022-08-26T18:32:01.575Z,97980.91
2022-08-26T18:42:21.381Z,98001.13
2022-08-26T18:47:27.213Z,97995.09
2022-08-26T18:52:32.743Z,97995.63
2022-08-26T18:57:37.370Z,97999.06
2022-08-26T19:02:43.171Z,97999.41
2022-08-26T19:07:56.567Z,98012.75
2022-08-26T19:13:01.158Z,98011.22
2022-08-26T19:18:11.328Z,98012.06
2022-08-26T19:23:31.323Z,98012.34
2022-08-26T19:28:37.651Z,98019.81
2022-08-26T19:33:45.550Z,98027.81
2022-08-26T19:38:51.231Z,98028.97
2022-08-26T19:43:58.693Z,98037.16
2022-08-26T19:49:05.643Z,98040.19
2022-08-26T19:54:12.430Z,98042.75
2022-08-26T19:59:17.462Z,98060.63
2022-08-26T20:04:23.538Z,98065.78
2022-08-26T20:09:27.968Z,98083.56
2022-08-26T20:14:35.012Z,98088.47
2022-08-26T20:19:58.715Z,98075.34
2022-08-26T20:25:03.177Z,98067.91
2022-08-26T20:30:11.250Z,98069.56
2022-08-26T20:35:18.080Z,98073.28
2022-08-26T20:40:22.965Z,98083.03
2022-08-26T20:45:27.526Z,98078.91
2022-08-26T20:50:33.922Z,98068.00
2022-08-26T20:55:38.382Z,98070.38
2022-08-26T21:00:43.039Z,98074.94
2022-08-26T21:05:50.884Z,98068.63
2022-08-26T21:10:57.972Z,98074.31
2022-08-26T21:16:03.114Z,98069.16
2022-08-26T21:21:10.944Z,98092.44
2022-08-26T21:26:17.631Z,98104.56
2022-08-26T21:31:24.901Z,98094.66
2022-08-26T21:36:32.211Z,98088.97
2022-08-26T21:41:36.688Z,98079.66
2022-08-26T21:46:42.132Z,98084.72
2022-08-26T21:51:50.717Z,98092.56
2022-08-26T21:56:55.380Z,98088.50
2022-08-26T22:02:00.854Z,98089.13
2022-08-26T22:07:09.188Z,98099.06
2022-08-26T22:12:18.032Z,98103.09
2022-08-26T22:17:23.333Z,98096.75
2022-08-26T22:22:29.624Z,98103.56
2022-08-26T22:27:33.994Z,98109.69
2022-08-26T22:32:45.781Z,98112.00
2022-08-26T22:37:51.840Z,98104.41
2022-08-26T22:43:00.275Z,98102.34
2022-08-26T22:48:05.709Z,98100.16
2022-08-26T22:53:12.011Z,98091.16
2022-08-26T22:58:20.028Z,98085.88
2022-08-26T23:03:25.202Z,98091.84
2022-08-26T23:08:33.045Z,98089.44
2022-08-26T23:13:38.420Z,98099.06
2022-08-26T23:18:44.133Z,98097.94
2022-08-26T23:23:50.405Z,98099.41
2022-08-26T23:28:55.888Z,98091.47
2022-08-26T23:34:18.122Z,98093.25
2022-08-26T23:39:25.523Z,98089.00
2022-08-26T23:44:30.970Z,98087.97
2022-08-26T23:49:36.873Z,98080.06
2022-08-26T23:54:42.774Z,98081.66
2022-08-26T23:59:48.423Z,98081.00
